sensor_id;sensor_type;location;lat;lon;timestamp;P1;durP1;ratioP1;P2;durP2;ratioP2
1995;SDS011;38556;47.068;15.408;2023-03-31T00:01:23;20.60;;;19.38;;
1995;SDS011;38556;47.068;15.408;2023-03-31T00:03:51;19.67;;;18.55;;
1995;SDS011;38556;47.068;15.408;2023-03-31T00:06:30;20.40;;;19.20;;
1995;SDS011;38556;47.068;15.408;2023-03-31T00:09:02;20.80;;;19.52;;
1995;SDS011;38556;47.068;15.408;2023-03-31T00:11:30;21.55;;;20.25;;
1995;SDS011;38556;47.068;15.408;2023-03-31T00:13:58;21.58;;;20.38;;
1995;SDS011;38556;47.068;15.408;2023-03-31T00:16:25;20.05;;;18.95;;
1995;SDS011;38556;47.068;15.408;2023-03-31T00:18:53;22.48;;;20.35;;
1995;SDS011;38556;47.068;15.408;2023-03-31T00:21:21;20.25;;;19.20;;
1995;SDS011;38556;47.068;15.408;2023-03-31T00:23:59;21.05;;;19.55;;
1995;SDS011;38556;47.068;15.408;2023-03-31T00:26:27;20.60;;;19.40;;
1995;SDS011;38556;47.068;15.408;2023-03-31T00:28:55;21.30;;;20.13;;
1995;SDS011;38556;47.068;15.408;2023-03-31T00:31:25;21.10;;;19.80;;
1995;SDS011;38556;47.068;15.408;2023-03-31T00:33:53;21.83;;;20.52;;
1995;SDS011;38556;47.068;15.408;2023-03-31T00:36:21;21.55;;;20.15;;
1995;SDS011;38556;47.068;15.408;2023-03-31T00:38:51;22.45;;;21.10;;
1995;SDS011;38556;47.068;15.408;2023-03-31T00:41:19;20.95;;;19.75;;
1995;SDS011;38556;47.068;15.408;2023-03-31T00:44:07;20.77;;;19.55;;
1995;SDS011;38556;47.068;15.408;2023-03-31T00:46:39;21.27;;;20.15;;
1995;SDS011;38556;47.068;15.408;2023-03-31T00:49:11;21.95;;;20.55;;
1995;SDS011;38556;47.068;15.408;2023-03-31T00:51:44;22.90;;;20.60;;
1995;SDS011;38556;47.068;15.408;2023-03-31T00:54:15;21.70;;;20.35;;
1995;SDS011;38556;47.068;15.408;2023-03-31T00:56:44;20.67;;;19.60;;
1995;SDS011;38556;47.068;15.408;2023-03-31T00:59:13;20.98;;;19.75;;
1995;SDS011;38556;47.068;15.408;2023-03-31T01:01:44;21.23;;;19.92;;
1995;SDS011;38556;47.068;15.408;2023-03-31T01:04:14;21.90;;;20.50;;
1995;SDS011;38556;47.068;15.408;2023-03-31T01:06:50;21.17;;;19.83;;
1995;SDS011;38556;47.068;15.408;2023-03-31T01:09:25;21.50;;;20.10;;
1995;SDS011;38556;47.068;15.408;2023-03-31T01:11:59;20.42;;;19.27;;
1995;SDS011;38556;47.068;15.408;2023-03-31T01:14:30;21.20;;;19.77;;
1995;SDS011;38556;47.068;15.408;2023-03-31T01:16:59;19.80;;;18.80;;
1995;SDS011;38556;47.068;15.408;2023-03-31T01:19:29;20.05;;;18.95;;
1995;SDS011;38556;47.068;15.408;2023-03-31T01:22:13;20.88;;;19.55;;
1995;SDS011;38556;47.068;15.408;2023-03-31T01:25:10;20.40;;;19.20;;
1995;SDS011;38556;47.068;15.408;2023-03-31T01:28:00;19.48;;;18.35;;
1995;SDS011;38556;47.068;15.408;2023-03-31T01:37:00;20.10;;;18.90;;
1995;SDS011;38556;47.068;15.408;2023-03-31T01:39:59;20.70;;;19.15;;
1995;SDS011;38556;47.068;15.408;2023-03-31T01:42:35;20.77;;;19.63;;
1995;SDS011;38556;47.068;15.408;2023-03-31T01:45:09;23.45;;;21.15;;
1995;SDS011;38556;47.068;15.408;2023-03-31T01:47:45;20.92;;;19.73;;
1995;SDS011;38556;47.068;15.408;2023-03-31T01:50:23;19.63;;;18.52;;
1995;SDS011;38556;47.068;15.408;2023-03-31T01:52:55;21.13;;;19.85;;
1995;SDS011;38556;47.068;15.408;2023-03-31T01:55:30;20.02;;;18.67;;
1995;SDS011;38556;47.068;15.408;2023-03-31T01:58:02;21.48;;;20.17;;
1995;SDS011;38556;47.068;15.408;2023-03-31T02:00:35;20.73;;;19.52;;
1995;SDS011;38556;47.068;15.408;2023-03-31T02:03:08;19.70;;;18.48;;
1995;SDS011;38556;47.068;15.408;2023-03-31T02:05:42;20.23;;;18.85;;
1995;SDS011;38556;47.068;15.408;2023-03-31T02:08:13;19.52;;;18.50;;
1995;SDS011;38556;47.068;15.408;2023-03-31T02:10:45;20.60;;;19.50;;
1995;SDS011;38556;47.068;15.408;2023-03-31T02:13:14;21.05;;;19.90;;
1995;SDS011;38556;47.068;15.408;2023-03-31T02:15:44;21.85;;;20.65;;
1995;SDS011;38556;47.068;15.408;2023-03-31T02:18:17;21.70;;;20.42;;
1995;SDS011;38556;47.068;15.408;2023-03-31T02:20:47;21.58;;;20.33;;
1995;SDS011;38556;47.068;15.408;2023-03-31T02:23:18;21.15;;;19.95;;
1995;SDS011;38556;47.068;15.408;2023-03-31T02:25:53;21.30;;;20.10;;
1995;SDS011;38556;47.068;15.408;2023-03-31T02:28:26;20.88;;;19.77;;
1995;SDS011;38556;47.068;15.408;2023-03-31T02:30:58;20.55;;;19.40;;
1995;SDS011;38556;47.068;15.408;2023-03-31T02:33:32;21.17;;;19.98;;
1995;SDS011;38556;47.068;15.408;2023-03-31T02:36:00;20.90;;;19.80;;
1995;SDS011;38556;47.068;15.408;2023-03-31T02:38:29;21.65;;;20.33;;
1995;SDS011;38556;47.068;15.408;2023-03-31T02:40:59;20.30;;;19.20;;
1995;SDS011;38556;47.068;15.408;2023-03-31T02:43:26;21.40;;;20.20;;
1995;SDS011;38556;47.068;15.408;2023-03-31T02:45:54;21.70;;;20.60;;
1995;SDS011;38556;47.068;15.408;2023-03-31T02:48:22;21.83;;;20.58;;
1995;SDS011;38556;47.068;15.408;2023-03-31T02:50:55;20.98;;;19.63;;
1995;SDS011;38556;47.068;15.408;2023-03-31T02:53:51;20.65;;;19.45;;
1995;SDS011;38556;47.068;15.408;2023-03-31T02:56:36;21.63;;;20.23;;
1995;SDS011;38556;47.068;15.408;2023-03-31T02:59:19;20.40;;;19.10;;
1995;SDS011;38556;47.068;15.408;2023-03-31T03:01:59;20.83;;;19.70;;
1995;SDS011;38556;47.068;15.408;2023-03-31T03:04:41;21.88;;;20.50;;
1995;SDS011;38556;47.068;15.408;2023-03-31T03:07:22;22.05;;;20.65;;
1995;SDS011;38556;47.068;15.408;2023-03-31T03:09:54;20.33;;;19.02;;
1995;SDS011;38556;47.068;15.408;2023-03-31T03:12:31;22.08;;;20.80;;
1995;SDS011;38556;47.068;15.408;2023-03-31T03:15:04;22.25;;;20.80;;
1995;SDS011;38556;47.068;15.408;2023-03-31T03:17:35;23.40;;;22.00;;
1995;SDS011;38556;47.068;15.408;2023-03-31T03:20:05;23.52;;;22.02;;
1995;SDS011;38556;47.068;15.408;2023-03-31T03:22:35;21.45;;;20.10;;
1995;SDS011;38556;47.068;15.408;2023-03-31T03:25:03;21.83;;;20.42;;
1995;SDS011;38556;47.068;15.408;2023-03-31T03:27:32;21.73;;;20.27;;
1995;SDS011;38556;47.068;15.408;2023-03-31T03:30:00;20.25;;;18.83;;
1995;SDS011;38556;47.068;15.408;2023-03-31T03:32:29;21.50;;;20.30;;
1995;SDS011;38556;47.068;15.408;2023-03-31T03:34:57;22.33;;;21.02;;
1995;SDS011;38556;47.068;15.408;2023-03-31T03:37:26;21.40;;;20.23;;
1995;SDS011;38556;47.068;15.408;2023-03-31T03:39:53;21.73;;;20.30;;
1995;SDS011;38556;47.068;15.408;2023-03-31T03:42:20;22.40;;;21.00;;
1995;SDS011;38556;47.068;15.408;2023-03-31T03:44:50;21.63;;;20.42;;
1995;SDS011;38556;47.068;15.408;2023-03-31T03:47:17;21.95;;;20.75;;
1995;SDS011;38556;47.068;15.408;2023-03-31T03:49:44;21.55;;;20.25;;
1995;SDS011;38556;47.068;15.408;2023-03-31T03:52:13;22.70;;;21.30;;
1995;SDS011;38556;47.068;15.408;2023-03-31T03:54:40;22.38;;;21.08;;
1995;SDS011;38556;47.068;15.408;2023-03-31T03:57:08;21.70;;;20.42;;
1995;SDS011;38556;47.068;15.408;2023-03-31T03:59:35;21.40;;;20.15;;
1995;SDS011;38556;47.068;15.408;2023-03-31T04:02:04;24.25;;;22.67;;
1995;SDS011;38556;47.068;15.408;2023-03-31T04:04:31;22.63;;;21.23;;
1995;SDS011;38556;47.068;15.408;2023-03-31T04:06:58;22.77;;;21.30;;
1995;SDS011;38556;47.068;15.408;2023-03-31T04:09:25;22.90;;;21.40;;
1995;SDS011;38556;47.068;15.408;2023-03-31T04:11:53;22.70;;;21.30;;
1995;SDS011;38556;47.068;15.408;2023-03-31T04:14:20;22.08;;;20.70;;
1995;SDS011;38556;47.068;15.408;2023-03-31T04:16:48;23.25;;;21.80;;
1995;SDS011;38556;47.068;15.408;2023-03-31T04:19:17;23.08;;;21.65;;
1995;SDS011;38556;47.068;15.408;2023-03-31T04:21:46;23.92;;;22.27;;
1995;SDS011;38556;47.068;15.408;2023-03-31T04:24:23;21.65;;;20.35;;
1995;SDS011;38556;47.068;15.408;2023-03-31T04:26:55;22.73;;;21.42;;
1995;SDS011;38556;47.068;15.408;2023-03-31T04:29:22;21.75;;;20.55;;
1995;SDS011;38556;47.068;15.408;2023-03-31T04:31:50;22.55;;;21.25;;
1995;SDS011;38556;47.068;15.408;2023-03-31T04:34:20;21.55;;;20.00;;
1995;SDS011;38556;47.068;15.408;2023-03-31T04:36:50;22.58;;;21.20;;
1995;SDS011;38556;47.068;15.408;2023-03-31T04:39:21;22.40;;;21.00;;
1995;SDS011;38556;47.068;15.408;2023-03-31T04:41:51;22.55;;;21.15;;
1995;SDS011;38556;47.068;15.408;2023-03-31T04:44:18;22.75;;;21.45;;
1995;SDS011;38556;47.068;15.408;2023-03-31T04:46:46;25.88;;;24.02;;
1995;SDS011;38556;47.068;15.408;2023-03-31T04:49:13;26.20;;;24.10;;
1995;SDS011;38556;47.068;15.408;2023-03-31T04:51:41;25.65;;;24.05;;
1995;SDS011;38556;47.068;15.408;2023-03-31T04:54:09;34.33;;;31.33;;
1995;SDS011;38556;47.068;15.408;2023-03-31T04:56:36;37.20;;;33.80;;
1995;SDS011;38556;47.068;15.408;2023-03-31T04:59:04;41.60;;;37.55;;
1995;SDS011;38556;47.068;15.408;2023-03-31T05:01:33;39.78;;;36.53;;
1995;SDS011;38556;47.068;15.408;2023-03-31T05:04:00;34.97;;;31.52;;
1995;SDS011;38556;47.068;15.408;2023-03-31T05:06:27;32.63;;;29.70;;
1995;SDS011;38556;47.068;15.408;2023-03-31T05:08:57;31.55;;;29.10;;
1995;SDS011;38556;47.068;15.408;2023-03-31T05:11:24;31.40;;;28.70;;
1995;SDS011;38556;47.068;15.408;2023-03-31T05:13:51;29.02;;;26.92;;
1995;SDS011;38556;47.068;15.408;2023-03-31T05:16:19;32.42;;;29.90;;
1995;SDS011;38556;47.068;15.408;2023-03-31T05:18:46;31.20;;;28.90;;
1995;SDS011;38556;47.068;15.408;2023-03-31T05:21:14;30.23;;;27.92;;
1995;SDS011;38556;47.068;15.408;2023-03-31T05:23:43;31.20;;;28.60;;
1995;SDS011;38556;47.068;15.408;2023-03-31T05:26:11;31.90;;;29.13;;
1995;SDS011;38556;47.068;15.408;2023-03-31T05:28:39;29.65;;;27.38;;
1995;SDS011;38556;47.068;15.408;2023-03-31T05:31:07;29.73;;;27.42;;
1995;SDS011;38556;47.068;15.408;2023-03-31T05:33:36;29.52;;;27.42;;
1995;SDS011;38556;47.068;15.408;2023-03-31T05:36:06;28.10;;;26.10;;
1995;SDS011;38556;47.068;15.408;2023-03-31T05:38:34;28.73;;;26.52;;
1995;SDS011;38556;47.068;15.408;2023-03-31T05:41:01;28.70;;;26.70;;
1995;SDS011;38556;47.068;15.408;2023-03-31T05:43:30;29.05;;;26.75;;
1995;SDS011;38556;47.068;15.408;2023-03-31T05:45:58;28.55;;;26.20;;
1995;SDS011;38556;47.068;15.408;2023-03-31T05:48:25;26.95;;;25.02;;
1995;SDS011;38556;47.068;15.408;2023-03-31T05:50:55;26.00;;;24.25;;
1995;SDS011;38556;47.068;15.408;2023-03-31T05:53:22;27.40;;;25.52;;
1995;SDS011;38556;47.068;15.408;2023-03-31T05:55:55;25.45;;;23.85;;
1995;SDS011;38556;47.068;15.408;2023-03-31T05:58:24;26.77;;;24.90;;
1995;SDS011;38556;47.068;15.408;2023-03-31T06:01:00;26.05;;;24.45;;
1995;SDS011;38556;47.068;15.408;2023-03-31T06:03:30;25.33;;;23.52;;
1995;SDS011;38556;47.068;15.408;2023-03-31T06:05:58;27.27;;;25.58;;
1995;SDS011;38556;47.068;15.408;2023-03-31T06:08:26;26.40;;;24.60;;
1995;SDS011;38556;47.068;15.408;2023-03-31T06:10:54;25.52;;;23.85;;
1995;SDS011;38556;47.068;15.408;2023-03-31T06:13:21;25.73;;;24.02;;
1995;SDS011;38556;47.068;15.408;2023-03-31T06:15:52;25.75;;;24.05;;
1995;SDS011;38556;47.068;15.408;2023-03-31T06:18:22;26.98;;;25.13;;
1995;SDS011;38556;47.068;15.408;2023-03-31T06:20:50;24.90;;;23.20;;
1995;SDS011;38556;47.068;15.408;2023-03-31T06:23:17;25.40;;;23.58;;
1995;SDS011;38556;47.068;15.408;2023-03-31T06:25:44;25.77;;;24.17;;
1995;SDS011;38556;47.068;15.408;2023-03-31T06:28:11;26.08;;;24.27;;
1995;SDS011;38556;47.068;15.408;2023-03-31T06:30:39;28.20;;;26.08;;
1995;SDS011;38556;47.068;15.408;2023-03-31T06:33:06;28.77;;;26.52;;
1995;SDS011;38556;47.068;15.408;2023-03-31T06:35:37;29.52;;;27.13;;
1995;SDS011;38556;47.068;15.408;2023-03-31T06:38:05;25.40;;;23.75;;
1995;SDS011;38556;47.068;15.408;2023-03-31T06:40:32;24.85;;;23.25;;
1995;SDS011;38556;47.068;15.408;2023-03-31T06:43:00;26.35;;;24.30;;
1995;SDS011;38556;47.068;15.408;2023-03-31T06:45:28;27.52;;;25.85;;
1995;SDS011;38556;47.068;15.408;2023-03-31T06:47:55;27.75;;;25.52;;
1995;SDS011;38556;47.068;15.408;2023-03-31T06:50:22;26.40;;;24.42;;
1995;SDS011;38556;47.068;15.408;2023-03-31T06:52:51;26.58;;;24.77;;
1995;SDS011;38556;47.068;15.408;2023-03-31T06:55:20;26.48;;;24.77;;
1995;SDS011;38556;47.068;15.408;2023-03-31T06:57:47;26.42;;;24.70;;
1995;SDS011;38556;47.068;15.408;2023-03-31T07:00:15;26.85;;;24.50;;
1995;SDS011;38556;47.068;15.408;2023-03-31T07:02:42;26.48;;;24.77;;
1995;SDS011;38556;47.068;15.408;2023-03-31T07:05:10;27.80;;;25.67;;
1995;SDS011;38556;47.068;15.408;2023-03-31T07:07:37;26.40;;;24.63;;
1995;SDS011;38556;47.068;15.408;2023-03-31T07:10:07;28.38;;;26.17;;
1995;SDS011;38556;47.068;15.408;2023-03-31T07:12:34;27.58;;;25.88;;
1995;SDS011;38556;47.068;15.408;2023-03-31T07:15:02;27.65;;;25.90;;
1995;SDS011;38556;47.068;15.408;2023-03-31T07:17:29;27.23;;;25.42;;
1995;SDS011;38556;47.068;15.408;2023-03-31T07:19:56;27.23;;;25.48;;
1995;SDS011;38556;47.068;15.408;2023-03-31T07:22:25;27.30;;;25.48;;
1995;SDS011;38556;47.068;15.408;2023-03-31T07:24:52;28.42;;;26.63;;
1995;SDS011;38556;47.068;15.408;2023-03-31T07:27:20;30.63;;;28.52;;
1995;SDS011;38556;47.068;15.408;2023-03-31T07:29:48;30.83;;;28.25;;
1995;SDS011;38556;47.068;15.408;2023-03-31T07:32:15;30.38;;;28.13;;
1995;SDS011;38556;47.068;15.408;2023-03-31T07:34:43;30.05;;;27.95;;
1995;SDS011;38556;47.068;15.408;2023-03-31T07:37:10;30.73;;;28.63;;
1995;SDS011;38556;47.068;15.408;2023-03-31T07:39:38;31.55;;;28.92;;
1995;SDS011;38556;47.068;15.408;2023-03-31T07:42:05;32.10;;;29.38;;
1995;SDS011;38556;47.068;15.408;2023-03-31T07:44:34;30.65;;;28.65;;
1995;SDS011;38556;47.068;15.408;2023-03-31T07:47:03;29.33;;;27.25;;
1995;SDS011;38556;47.068;15.408;2023-03-31T07:49:30;29.50;;;27.45;;
1995;SDS011;38556;47.068;15.408;2023-03-31T07:51:58;29.35;;;27.55;;
1995;SDS011;38556;47.068;15.408;2023-03-31T07:54:26;28.55;;;26.35;;
1995;SDS011;38556;47.068;15.408;2023-03-31T07:56:53;29.48;;;27.58;;
1995;SDS011;38556;47.068;15.408;2023-03-31T07:59:21;27.67;;;25.83;;
1995;SDS011;38556;47.068;15.408;2023-03-31T08:01:49;27.77;;;25.77;;
1995;SDS011;38556;47.068;15.408;2023-03-31T08:04:16;28.80;;;26.65;;
1995;SDS011;38556;47.068;15.408;2023-03-31T08:06:44;28.30;;;26.23;;
1995;SDS011;38556;47.068;15.408;2023-03-31T08:09:11;26.85;;;24.77;;
1995;SDS011;38556;47.068;15.408;2023-03-31T08:11:39;26.67;;;25.08;;
1995;SDS011;38556;47.068;15.408;2023-03-31T08:14:06;24.60;;;22.90;;
1995;SDS011;38556;47.068;15.408;2023-03-31T08:16:34;25.48;;;24.05;;
1995;SDS011;38556;47.068;15.408;2023-03-31T08:19:02;27.00;;;24.73;;
1995;SDS011;38556;47.068;15.408;2023-03-31T08:21:29;24.65;;;22.90;;
1995;SDS011;38556;47.068;15.408;2023-03-31T08:23:57;28.40;;;26.08;;
1995;SDS011;38556;47.068;15.408;2023-03-31T08:26:24;28.48;;;26.23;;
1995;SDS011;38556;47.068;15.408;2023-03-31T08:28:52;25.92;;;23.88;;
1995;SDS011;38556;47.068;15.408;2023-03-31T08:31:20;24.50;;;22.50;;
1995;SDS011;38556;47.068;15.408;2023-03-31T08:33:48;25.00;;;23.50;;
1995;SDS011;38556;47.068;15.408;2023-03-31T08:36:17;24.83;;;23.02;;
1995;SDS011;38556;47.068;15.408;2023-03-31T08:38:44;25.67;;;23.77;;
1995;SDS011;38556;47.068;15.408;2023-03-31T08:41:17;23.65;;;22.15;;
1995;SDS011;38556;47.068;15.408;2023-03-31T08:43:53;24.90;;;22.95;;
1995;SDS011;38556;47.068;15.408;2023-03-31T08:46:23;24.30;;;22.77;;
1995;SDS011;38556;47.068;15.408;2023-03-31T08:48:53;23.42;;;21.83;;
1995;SDS011;38556;47.068;15.408;2023-03-31T08:51:25;24.67;;;23.20;;
1995;SDS011;38556;47.068;15.408;2023-03-31T08:53:54;23.88;;;22.35;;
1995;SDS011;38556;47.068;15.408;2023-03-31T08:56:28;24.65;;;22.65;;
1995;SDS011;38556;47.068;15.408;2023-03-31T08:59:02;24.00;;;22.52;;
1995;SDS011;38556;47.068;15.408;2023-03-31T09:01:32;24.58;;;22.92;;
1995;SDS011;38556;47.068;15.408;2023-03-31T09:04:13;22.95;;;21.63;;
1995;SDS011;38556;47.068;15.408;2023-03-31T09:06:53;23.33;;;21.98;;
1995;SDS011;38556;47.068;15.408;2023-03-31T09:09:29;22.92;;;21.33;;
1995;SDS011;38556;47.068;15.408;2023-03-31T09:12:06;23.23;;;22.02;;
1995;SDS011;38556;47.068;15.408;2023-03-31T09:14:38;22.00;;;20.70;;
1995;SDS011;38556;47.068;15.408;2023-03-31T09:17:14;24.27;;;21.80;;
1995;SDS011;38556;47.068;15.408;2023-03-31T09:19:47;23.35;;;21.88;;
1995;SDS011;38556;47.068;15.408;2023-03-31T09:22:21;22.63;;;21.23;;
1995;SDS011;38556;47.068;15.408;2023-03-31T09:24:54;23.80;;;22.50;;
1995;SDS011;38556;47.068;15.408;2023-03-31T09:27:25;22.48;;;21.10;;
1995;SDS011;38556;47.068;15.408;2023-03-31T09:29:56;21.70;;;20.58;;
1995;SDS011;38556;47.068;15.408;2023-03-31T09:32:28;21.23;;;20.23;;
1995;SDS011;38556;47.068;15.408;2023-03-31T09:34:56;22.17;;;20.97;;
1995;SDS011;38556;47.068;15.408;2023-03-31T09:37:30;21.33;;;19.87;;
1995;SDS011;38556;47.068;15.408;2023-03-31T09:39:58;21.13;;;20.00;;
1995;SDS011;38556;47.068;15.408;2023-03-31T09:42:32;20.80;;;19.70;;
1995;SDS011;38556;47.068;15.408;2023-03-31T09:44:59;21.50;;;20.37;;
1995;SDS011;38556;47.068;15.408;2023-03-31T09:47:28;20.30;;;19.40;;
1995;SDS011;38556;47.068;15.408;2023-03-31T09:49:59;20.77;;;19.60;;
1995;SDS011;38556;47.068;15.408;2023-03-31T09:52:28;19.87;;;18.97;;
1995;SDS011;38556;47.068;15.408;2023-03-31T09:54:59;20.67;;;19.60;;
1995;SDS011;38556;47.068;15.408;2023-03-31T09:57:28;20.90;;;19.80;;
1995;SDS011;38556;47.068;15.408;2023-03-31T10:00:00;19.45;;;18.48;;
1995;SDS011;38556;47.068;15.408;2023-03-31T10:02:38;19.90;;;18.90;;
1995;SDS011;38556;47.068;15.408;2023-03-31T10:05:17;21.17;;;20.08;;
1995;SDS011;38556;47.068;15.408;2023-03-31T10:07:54;20.13;;;19.13;;
1995;SDS011;38556;47.068;15.408;2023-03-31T10:10:53;19.47;;;18.60;;
1995;SDS011;38556;47.068;15.408;2023-03-31T10:13:22;19.50;;;18.70;;
1995;SDS011;38556;47.068;15.408;2023-03-31T10:15:51;19.20;;;18.40;;
1995;SDS011;38556;47.068;15.408;2023-03-31T10:18:20;18.70;;;17.90;;
1995;SDS011;38556;47.068;15.408;2023-03-31T10:20:59;19.43;;;18.53;;
1995;SDS011;38556;47.068;15.408;2023-03-31T10:23:30;18.92;;;17.95;;
1995;SDS011;38556;47.068;15.408;2023-03-31T10:25:58;18.57;;;17.67;;
1995;SDS011;38556;47.068;15.408;2023-03-31T10:28:29;18.50;;;17.70;;
1995;SDS011;38556;47.068;15.408;2023-03-31T10:30:57;18.85;;;17.80;;
1995;SDS011;38556;47.068;15.408;2023-03-31T10:33:29;18.70;;;17.90;;
1995;SDS011;38556;47.068;15.408;2023-03-31T10:35:59;18.10;;;17.30;;
1995;SDS011;38556;47.068;15.408;2023-03-31T10:38:30;18.00;;;17.20;;
1995;SDS011;38556;47.068;15.408;2023-03-31T10:41:00;18.10;;;17.30;;
1995;SDS011;38556;47.068;15.408;2023-03-31T10:43:28;19.70;;;18.70;;
1995;SDS011;38556;47.068;15.408;2023-03-31T10:46:01;18.55;;;17.70;;
1995;SDS011;38556;47.068;15.408;2023-03-31T10:48:29;16.65;;;15.88;;
1995;SDS011;38556;47.068;15.408;2023-03-31T10:50:58;19.05;;;18.15;;
1995;SDS011;38556;47.068;15.408;2023-03-31T10:53:27;18.10;;;17.25;;
1995;SDS011;38556;47.068;15.408;2023-03-31T10:55:58;18.33;;;17.23;;
1995;SDS011;38556;47.068;15.408;2023-03-31T10:58:38;18.10;;;17.30;;
1995;SDS011;38556;47.068;15.408;2023-03-31T11:01:19;18.73;;;17.63;;
1995;SDS011;38556;47.068;15.408;2023-03-31T11:04:00;20.08;;;19.05;;
1995;SDS011;38556;47.068;15.408;2023-03-31T11:06:39;19.00;;;18.10;;
1995;SDS011;38556;47.068;15.408;2023-03-31T11:09:18;17.73;;;17.03;;
1995;SDS011;38556;47.068;15.408;2023-03-31T11:12:02;17.73;;;16.93;;
1995;SDS011;38556;47.068;15.408;2023-03-31T11:14:37;18.83;;;18.00;;
1995;SDS011;38556;47.068;15.408;2023-03-31T11:17:16;18.30;;;17.40;;
1995;SDS011;38556;47.068;15.408;2023-03-31T11:19:54;19.23;;;18.02;;
1995;SDS011;38556;47.068;15.408;2023-03-31T11:22:30;17.70;;;16.90;;
1995;SDS011;38556;47.068;15.408;2023-03-31T11:25:13;18.20;;;17.40;;
1995;SDS011;38556;47.068;15.408;2023-03-31T11:30:47;18.50;;;17.70;;
1995;SDS011;38556;47.068;15.408;2023-03-31T11:33:36;18.63;;;17.73;;
1995;SDS011;38556;47.068;15.408;2023-03-31T11:36:21;17.80;;;17.00;;
1995;SDS011;38556;47.068;15.408;2023-03-31T11:39:14;18.40;;;17.50;;
1995;SDS011;38556;47.068;15.408;2023-03-31T11:41:51;18.80;;;17.90;;
1995;SDS011;38556;47.068;15.408;2023-03-31T11:44:23;18.73;;;17.77;;
1995;SDS011;38556;47.068;15.408;2023-03-31T11:46:56;19.13;;;18.17;;
1995;SDS011;38556;47.068;15.408;2023-03-31T11:49:29;19.47;;;18.27;;
1995;SDS011;38556;47.068;15.408;2023-03-31T11:52:05;19.03;;;18.20;;
1995;SDS011;38556;47.068;15.408;2023-03-31T11:54:36;18.17;;;17.40;;
1995;SDS011;38556;47.068;15.408;2023-03-31T11:57:09;18.07;;;17.10;;
1995;SDS011;38556;47.068;15.408;2023-03-31T11:59:43;18.13;;;17.37;;
1995;SDS011;38556;47.068;15.408;2023-03-31T12:02:17;18.37;;;17.67;;
1995;SDS011;38556;47.068;15.408;2023-03-31T12:04:49;19.00;;;17.90;;
1995;SDS011;38556;47.068;15.408;2023-03-31T12:07:21;18.60;;;17.80;;
1995;SDS011;38556;47.068;15.408;2023-03-31T12:09:57;18.00;;;17.30;;
1995;SDS011;38556;47.068;15.408;2023-03-31T12:12:31;18.13;;;17.10;;
1995;SDS011;38556;47.068;15.408;2023-03-31T12:15:05;18.00;;;17.30;;
1995;SDS011;38556;47.068;15.408;2023-03-31T12:17:40;18.23;;;17.43;;
1995;SDS011;38556;47.068;15.408;2023-03-31T12:20:13;18.13;;;17.23;;
1995;SDS011;38556;47.068;15.408;2023-03-31T12:22:47;18.70;;;17.90;;
1995;SDS011;38556;47.068;15.408;2023-03-31T12:25:15;18.67;;;17.77;;
1995;SDS011;38556;47.068;15.408;2023-03-31T12:27:47;18.80;;;17.90;;
1995;SDS011;38556;47.068;15.408;2023-03-31T12:30:19;17.67;;;16.87;;
1995;SDS011;38556;47.068;15.408;2023-03-31T12:32:55;18.40;;;17.60;;
1995;SDS011;38556;47.068;15.408;2023-03-31T12:35:26;18.70;;;17.73;;
1995;SDS011;38556;47.068;15.408;2023-03-31T12:38:07;19.37;;;18.47;;
1995;SDS011;38556;47.068;15.408;2023-03-31T12:40:57;18.73;;;17.83;;
1995;SDS011;38556;47.068;15.408;2023-03-31T12:49:34;19.63;;;18.53;;
1995;SDS011;38556;47.068;15.408;2023-03-31T12:52:13;18.53;;;17.63;;
1995;SDS011;38556;47.068;15.408;2023-03-31T12:57:49;18.03;;;17.33;;
1995;SDS011;38556;47.068;15.408;2023-03-31T13:00:19;18.97;;;18.17;;
1995;SDS011;38556;47.068;15.408;2023-03-31T13:06:02;18.37;;;17.47;;
1995;SDS011;38556;47.068;15.408;2023-03-31T13:08:48;17.83;;;16.93;;
1995;SDS011;38556;47.068;15.408;2023-03-31T13:11:18;16.73;;;16.13;;
1995;SDS011;38556;47.068;15.408;2023-03-31T13:13:51;17.97;;;17.07;;
1995;SDS011;38556;47.068;15.408;2023-03-31T13:16:26;17.60;;;16.80;;
1995;SDS011;38556;47.068;15.408;2023-03-31T13:18:54;17.77;;;17.07;;
1995;SDS011;38556;47.068;15.408;2023-03-31T13:21:23;17.90;;;17.10;;
1995;SDS011;38556;47.068;15.408;2023-03-31T13:23:51;18.60;;;17.80;;
1995;SDS011;38556;47.068;15.408;2023-03-31T13:26:37;17.67;;;16.97;;
1995;SDS011;38556;47.068;15.408;2023-03-31T13:29:20;18.20;;;17.17;;
1995;SDS011;38556;47.068;15.408;2023-03-31T13:34:57;17.30;;;16.60;;
1995;SDS011;38556;47.068;15.408;2023-03-31T13:40:36;18.10;;;17.20;;
1995;SDS011;38556;47.068;15.408;2023-03-31T13:43:26;18.30;;;17.47;;
1995;SDS011;38556;47.068;15.408;2023-03-31T13:46:24;18.13;;;17.20;;
1995;SDS011;38556;47.068;15.408;2023-03-31T13:49:07;18.97;;;18.00;;
1995;SDS011;38556;47.068;15.408;2023-03-31T13:51:49;19.23;;;18.43;;
1995;SDS011;38556;47.068;15.408;2023-03-31T13:57:26;17.87;;;17.17;;
1995;SDS011;38556;47.068;15.408;2023-03-31T14:00:34;17.63;;;16.73;;
1995;SDS011;38556;47.068;15.408;2023-03-31T14:03:16;18.53;;;17.73;;
1995;SDS011;38556;47.068;15.408;2023-03-31T14:05:52;17.70;;;17.00;;
1995;SDS011;38556;47.068;15.408;2023-03-31T14:08:26;17.50;;;16.70;;
1995;SDS011;38556;47.068;15.408;2023-03-31T14:11:17;18.27;;;17.47;;
1995;SDS011;38556;47.068;15.408;2023-03-31T14:14:02;17.70;;;17.00;;
1995;SDS011;38556;47.068;15.408;2023-03-31T14:16:33;18.87;;;17.97;;
1995;SDS011;38556;47.068;15.408;2023-03-31T14:19:10;18.17;;;17.30;;
1995;SDS011;38556;47.068;15.408;2023-03-31T14:22:01;18.73;;;17.83;;
1995;SDS011;38556;47.068;15.408;2023-03-31T14:24:38;18.50;;;17.70;;
1995;SDS011;38556;47.068;15.408;2023-03-31T14:27:16;17.23;;;16.43;;
1995;SDS011;38556;47.068;15.408;2023-03-31T14:29:52;17.80;;;17.10;;
1995;SDS011;38556;47.068;15.408;2023-03-31T14:32:26;18.73;;;17.70;;
1995;SDS011;38556;47.068;15.408;2023-03-31T14:35:03;17.90;;;17.00;;
1995;SDS011;38556;47.068;15.408;2023-03-31T14:37:44;18.23;;;17.43;;
1995;SDS011;38556;47.068;15.408;2023-03-31T14:40:13;17.67;;;16.87;;
1995;SDS011;38556;47.068;15.408;2023-03-31T14:42:44;18.13;;;17.33;;
1995;SDS011;38556;47.068;15.408;2023-03-31T14:45:15;18.30;;;17.40;;
1995;SDS011;38556;47.068;15.408;2023-03-31T14:47:52;18.10;;;17.20;;
1995;SDS011;38556;47.068;15.408;2023-03-31T14:50:28;19.00;;;18.10;;
1995;SDS011;38556;47.068;15.408;2023-03-31T14:52:57;17.90;;;17.10;;
1995;SDS011;38556;47.068;15.408;2023-03-31T14:55:26;18.20;;;17.40;;
1995;SDS011;38556;47.068;15.408;2023-03-31T14:57:57;19.07;;;17.73;;
1995;SDS011;38556;47.068;15.408;2023-03-31T15:00:29;17.90;;;16.77;;
1995;SDS011;38556;47.068;15.408;2023-03-31T15:02:57;18.07;;;16.90;;
1995;SDS011;38556;47.068;15.408;2023-03-31T15:05:27;18.20;;;17.00;;
1995;SDS011;38556;47.068;15.408;2023-03-31T15:07:56;17.90;;;17.00;;
1995;SDS011;38556;47.068;15.408;2023-03-31T15:10:25;17.83;;;16.83;;
1995;SDS011;38556;47.068;15.408;2023-03-31T15:13:00;17.97;;;17.17;;
1995;SDS011;38556;47.068;15.408;2023-03-31T15:15:32;18.23;;;17.30;;
1995;SDS011;38556;47.068;15.408;2023-03-31T15:18:00;18.93;;;17.93;;
1995;SDS011;38556;47.068;15.408;2023-03-31T15:20:29;19.80;;;18.80;;